Time;durP1;ratioP1;P1;durP2;ratioP2;P2;SDS_P1;SDS_P2;PMS_P1;PMS_P2;Temp;Humidity;BMP_temperature;BMP_pressure;BME280_temperature;BME280_humidity;BME280_pressure;Samples;Min_cycle;Max_cycle;Signal;HPM_P1;HPM_P2
2024/02/07 00:01:59;;;;;;;;;;;22.70;39.20;;;;;;5074719;28;19924;-58
2024/02/07 00:04:26;;;;;;;;;;;22.70;39.20;;;;;;5076025;28;19924;-59
2024/02/07 00:06:53;;;;;;;;;;;22.70;39.30;;;;;;5075494;28;20393;-59
2024/02/07 00:09:20;;;;;;;;;;;22.70;39.30;;;;;;5075557;28;19928;-58
2024/02/07 00:11:47;;;;;;;;;;;22.60;39.20;;;;;;5075992;28;20338;-58
2024/02/07 00:14:14;;;;;;;;;;;22.70;39.30;;;;;;5075362;28;19924;-58
2024/02/07 00:16:41;;;;;;;;;;;22.60;39.20;;;;;;5075753;28;19971;-58
2024/02/07 00:19:08;;;;;;;;;;;22.60;39.20;;;;;;5075661;28;19946;-59
2024/02/07 00:21:35;;;;;;;;;;;22.60;39.20;;;;;;5075821;28;19928;-58
2024/02/07 00:24:02;;;;;;;;;;;22.60;39.20;;;;;;5075739;28;20370;-58
2024/02/07 00:26:29;;;;;;;;;;;22.60;39.20;;;;;;5075318;28;19931;-59
2024/02/07 00:28:56;;;;;;;;;;;22.60;39.20;;;;;;5057738;28;19925;-58
2024/02/07 00:31:23;;;;;;;;;;;22.60;39.20;;;;;;5075153;28;19933;-58
2024/02/07 00:33:50;;;;;;;;;;;22.60;39.20;;;;;;5075564;28;19967;-58
2024/02/07 00:36:17;;;;;;;;;;;22.60;39.30;;;;;;5075195;28;19924;-58
2024/02/07 00:38:44;;;;;;;;;;;22.60;39.30;;;;;;5057583;28;19924;-58
2024/02/07 00:41:21;;;;;;;;;;;22.60;39.30;;;;;;5075338;28;19955;-58
2024/02/07 00:43:48;;;;;;;;;;;22.60;39.30;;;;;;5074634;28;19932;-58
2024/02/07 00:46:16;;;;;;;;;;;22.60;39.80;;;;;;5075477;28;19924;-58
2024/02/07 00:48:43;;;;;;;;;;;22.60;39.30;;;;;;5074862;28;19935;-58
2024/02/07 00:51:11;;;;;;;;;;;22.60;39.20;;;;;;5074907;28;19924;-58
2024/02/07 00:53:38;;;;;;;;;;;22.60;39.20;;;;;;5074699;28;20449;-58
2024/02/07 00:56:05;;;;;;;;;;;22.60;39.10;;;;;;5075117;28;19925;-59
2024/02/07 00:58:32;;;;;;;;;;;22.60;39.10;;;;;;5074478;28;19929;-58
2024/02/07 01:01:00;;;;;;;;;;;22.60;39.10;;;;;;5074954;28;20316;-59
2024/02/07 01:03:27;;;;;;;;;;;22.60;39.10;;;;;;5075077;28;20255;-59
2024/02/07 01:05:53;;;;;;;;;;;22.60;39.10;;;;;;5074181;28;20374;-58
2024/02/07 01:08:20;;;;;;;;;;;22.50;39.00;;;;;;5074749;28;19970;-59
2024/02/07 01:10:48;;;;;;;;;;;22.60;39.10;;;;;;5074720;28;19928;-58
2024/02/07 01:13:14;;;;;;;;;;;22.60;39.10;;;;;;5073367;28;19925;-58
2024/02/07 01:15:41;;;;;;;;;;;22.50;39.10;;;;;;5074101;28;19928;-58
2024/02/07 01:18:08;;;;;;;;;;;22.50;39.10;;;;;;5074492;28;19978;-58
2024/02/07 01:20:35;;;;;;;;;;;22.50;39.10;;;;;;5073979;28;19975;-59
2024/02/07 01:23:03;;;;;;;;;;;22.50;39.10;;;;;;5074671;28;20328;-59
2024/02/07 01:25:30;;;;;;;;;;;22.50;39.20;;;;;;5073597;28;20404;-59
2024/02/07 01:27:57;;;;;;;;;;;22.50;39.20;;;;;;5074452;28;19924;-58
2024/02/07 01:30:24;;;;;;;;;;;22.50;39.20;;;;;;5056641;28;19971;-58
2024/02/07 01:32:51;;;;;;;;;;;22.50;39.20;;;;;;5074127;28;19929;-58
2024/02/07 01:35:18;;;;;;;;;;;22.50;39.20;;;;;;5073786;28;19924;-59
2024/02/07 01:37:46;;;;;;;;;;;22.50;39.20;;;;;;5073806;28;19924;-58
2024/02/07 01:40:13;;;;;;;;;;;22.50;39.20;;;;;;5053766;28;19937;-58
2024/02/07 01:42:40;;;;;;;;;;;22.40;39.10;;;;;;5054284;28;19971;-59
2024/02/07 01:45:29;;;;;;;;;;;22.40;39.20;;;;;;5053809;28;19928;-59
2024/02/07 01:47:57;;;;;;;;;;;22.40;39.20;;;;;;5053777;28;19925;-59
2024/02/07 01:50:24;;;;;;;;;;;22.40;39.20;;;;;;5054021;28;20015;-59
2024/02/07 01:52:53;;;;;;;;;;;22.40;39.20;;;;;;5054030;28;20266;-58
2024/02/07 01:55:20;;;;;;;;;;;22.40;39.70;;;;;;5053478;28;19967;-58
2024/02/07 01:57:48;;;;;;;;;;;22.40;39.10;;;;;;5053678;28;19980;-59
2024/02/07 02:00:15;;;;;;;;;;;22.50;39.20;;;;;;5053598;28;19979;-59
2024/02/07 02:02:47;;;;;;;;;;;22.50;39.10;;;;;;5053691;28;20293;-58
2024/02/07 02:05:14;;;;;;;;;;;22.50;39.10;;;;;;5052714;28;19928;-59
2024/02/07 02:07:41;;;;;;;;;;;22.50;39.00;;;;;;5053230;28;20333;-58
2024/02/07 02:10:08;;;;;;;;;;;22.50;39.00;;;;;;5053824;28;19929;-58
2024/02/07 02:12:40;;;;;;;;;;;22.50;39.00;;;;;;5053571;28;19979;-58
2024/02/07 02:15:08;;;;;;;;;;;22.40;39.00;;;;;;5053549;28;20305;-58
2024/02/07 02:17:35;;;;;;;;;;;22.50;39.00;;;;;;5053387;28;19928;-59
2024/02/07 02:20:04;;;;;;;;;;;22.40;39.00;;;;;;5053752;28;20000;-58
2024/02/07 02:22:46;;;;;;;;;;;22.40;39.00;;;;;;5053039;28;19925;-58
2024/02/07 02:25:34;;;;;;;;;;;22.40;39.00;;;;;;5052770;28;19925;-58
2024/02/07 02:28:18;;;;;;;;;;;22.40;39.00;;;;;;5052982;28;19968;-58
2024/02/07 02:30:50;;;;;;;;;;;22.40;39.00;;;;;;5052890;28;20404;-57
2024/02/07 02:33:18;;;;;;;;;;;22.40;39.00;;;;;;5035363;28;19932;-58
2024/02/07 02:35:46;;;;;;;;;;;22.40;39.10;;;;;;5053340;28;20366;-58
2024/02/07 02:38:14;;;;;;;;;;;22.40;39.00;;;;;;5053009;28;19929;-58
2024/02/07 02:40:43;;;;;;;;;;;22.40;39.10;;;;;;5052882;28;20306;-58
2024/02/07 02:43:10;;;;;;;;;;;22.40;39.10;;;;;;5053246;28;19931;-58
2024/02/07 02:45:37;;;;;;;;;;;22.40;39.10;;;;;;5052694;28;20343;-58
2024/02/07 02:48:04;;;;;;;;;;;22.30;39.00;;;;;;5052501;28;19979;-57
2024/02/07 02:50:32;;;;;;;;;;;22.40;39.10;;;;;;5053116;28;20020;-57
2024/02/07 02:52:59;;;;;;;;;;;22.30;39.00;;;;;;5052988;28;19978;-57
2024/02/07 02:55:26;;;;;;;;;;;22.30;39.00;;;;;;5052555;28;20004;-57
2024/02/07 02:57:59;;;;;;;;;;;22.30;39.00;;;;;;5053104;28;19931;-57
2024/02/07 03:00:26;;;;;;;;;;;22.40;39.70;;;;;;5071972;28;20286;-57
2024/02/07 03:02:56;;;;;;;;;;;22.30;39.00;;;;;;5055020;28;20401;-57
2024/02/07 03:05:56;;;;;;;;;;;22.40;39.00;;;;;;5072237;28;19958;-58
2024/02/07 03:08:21;;;;;;;;;;;22.40;39.00;;;;;;5072426;28;19929;-57
2024/02/07 03:10:51;;;;;;;;;;;22.40;39.00;;;;;;5072587;28;19924;-57
2024/02/07 03:13:18;;;;;;;;;;;22.40;38.90;;;;;;5072175;28;20015;-57
2024/02/07 03:15:46;;;;;;;;;;;22.40;38.90;;;;;;5072602;28;19925;-57
2024/02/07 03:18:12;;;;;;;;;;;22.40;38.90;;;;;;5072643;28;19924;-57
2024/02/07 03:20:41;;;;;;;;;;;22.40;38.90;;;;;;5072668;28;20002;-58
2024/02/07 03:23:08;;;;;;;;;;;22.40;38.90;;;;;;5072806;28;20258;-57
2024/02/07 03:25:36;;;;;;;;;;;22.40;38.80;;;;;;5072174;28;19924;-57
2024/02/07 03:28:04;;;;;;;;;;;22.40;38.80;;;;;;5072382;28;19935;-57
2024/02/07 03:30:31;;;;;;;;;;;22.30;38.80;;;;;;5072084;28;19924;-57
2024/02/07 03:32:58;;;;;;;;;;;22.30;38.80;;;;;;5072042;28;19924;-58
2024/02/07 03:35:26;;;;;;;;;;;22.30;38.80;;;;;;5072122;28;19959;-57
2024/02/07 03:37:55;;;;;;;;;;;22.30;38.80;;;;;;5076208;28;19933;-57
2024/02/07 03:40:22;;;;;;;;;;;22.30;38.80;;;;;;5076082;28;19978;-57
2024/02/07 03:42:50;;;;;;;;;;;22.30;38.80;;;;;;5076231;28;20305;-57
2024/02/07 03:45:17;;;;;;;;;;;22.30;38.90;;;;;;5058287;28;20289;-58
2024/02/07 03:47:44;;;;;;;;;;;22.30;38.90;;;;;;5074851;28;19928;-57
2024/02/07 03:50:11;;;;;;;;;;;22.30;38.90;;;;;;5076721;28;20381;-58
2024/02/07 03:52:39;;;;;;;;;;;22.20;38.80;;;;;;5075999;28;19950;-57
2024/02/07 03:55:06;;;;;;;;;;;22.30;38.90;;;;;;5075913;28;19931;-57
2024/02/07 03:57:34;;;;;;;;;;;22.20;38.80;;;;;;5075947;28;19951;-57
2024/02/07 04:00:01;;;;;;;;;;;22.30;38.90;;;;;;5076107;28;19925;-57
2024/02/07 04:02:28;;;;;;;;;;;22.20;38.90;;;;;;5075611;28;19924;-57
2024/02/07 04:04:55;;;;;;;;;;;22.30;38.90;;;;;;5058017;28;19925;-57
2024/02/07 04:07:25;;;;;;;;;;;22.20;38.90;;;;;;5075443;28;20472;-57
2024/02/07 04:09:53;;;;;;;;;;;22.30;38.90;;;;;;5075644;28;19925;-57
2024/02/07 05:15:42;;;;;;;;;;;22.30;37.40;;;;;;5074811;28;19924;-58
2024/02/07 05:18:09;;;;;;;;;;;22.40;37.40;;;;;;5074408;28;19931;-63
2024/02/07 05:20:36;;;;;;;;;;;22.30;37.30;;;;;;5074235;28;20407;-60
2024/02/07 05:23:03;;;;;;;;;;;22.30;37.30;;;;;;5074231;28;19924;-61
2024/02/07 05:25:32;;;;;;;;;;;22.40;37.30;;;;;;5073617;28;20440;-59
2024/02/07 05:27:59;;;;;;;;;;;22.30;37.30;;;;;;5073058;28;20474;-60
2024/02/07 05:30:26;;;;;;;;;;;22.30;37.30;;;;;;5074188;28;19986;-60
2024/02/07 05:32:53;;;;;;;;;;;22.30;37.20;;;;;;5073739;28;19963;-61
2024/02/07 05:35:20;;;;;;;;;;;22.30;37.20;;;;;;5073964;28;20392;-65
2024/02/07 05:37:48;;;;;;;;;;;22.30;37.10;;;;;;5073802;28;19924;-57
2024/02/07 05:40:16;;;;;;;;;;;22.30;37.10;;;;;;5072866;28;20380;-57
2024/02/07 05:42:43;;;;;;;;;;;22.40;37.10;;;;;;5073683;28;19925;-58
2024/02/07 05:45:09;;;;;;;;;;;22.40;37.10;;;;;;5073582;28;19932;-55
2024/02/07 05:47:36;;;;;;;;;;;22.40;37.00;;;;;;5073623;28;19963;-57
2024/02/07 05:50:03;;;;;;;;;;;22.40;37.00;;;;;;5073907;28;19931;-58
2024/02/07 05:52:30;;;;;;;;;;;22.40;37.00;;;;;;5073507;28;20373;-58
2024/02/07 05:54:57;;;;;;;;;;;22.40;36.90;;;;;;5055551;28;19924;-58
2024/02/07 05:57:24;;;;;;;;;;;22.40;36.90;;;;;;5073747;28;19956;-55
2024/02/07 05:59:51;;;;;;;;;;;22.40;36.90;;;;;;5072155;28;20420;-57
2024/02/07 06:02:18;;;;;;;;;;;22.40;36.90;;;;;;5073630;28;19932;-57
2024/02/07 06:04:49;;;;;;;;;;;22.40;36.80;;;;;;5073176;28;19924;-57
2024/02/07 06:07:17;;;;;;;;;;;22.40;36.80;;;;;;5055635;28;20374;-57
2024/02/07 06:09:45;;;;;;;;;;;22.40;36.80;;;;;;5072660;28;20405;-57
2024/02/07 06:12:12;;;;;;;;;;;22.40;36.80;;;;;;5059099;28;19964;-56
2024/02/07 06:14:39;;;;;;;;;;;22.40;36.80;;;;;;5057820;28;19933;-57
2024/02/07 06:17:06;;;;;;;;;;;22.50;36.80;;;;;;5068919;28;20023;-56
2024/02/07 06:19:33;;;;;;;;;;;22.50;36.80;;;;;;5071637;28;19968;-58
2024/02/07 06:22:00;;;;;;;;;;;22.50;36.80;;;;;;5070331;28;19932;-57
2024/02/07 06:24:27;;;;;;;;;;;22.50;36.90;;;;;;5067485;28;19970;-58
2024/02/07 06:26:54;;;;;;;;;;;22.50;37.00;;;;;;5062330;28;20029;-58
2024/02/07 06:29:21;;;;;;;;;;;22.50;37.20;;;;;;5045111;28;19928;-57
2024/02/07 06:31:48;;;;;;;;;;;22.50;37.30;;;;;;5066077;28;20373;-57
2024/02/07 06:34:15;;;;;;;;;;;22.50;37.30;;;;;;5064722;28;20032;-57
2024/02/07 06:36:42;;;;;;;;;;;22.60;37.30;;;;;;5060079;28;19936;-55
2024/02/07 06:39:09;;;;;;;;;;;22.60;37.30;;;;;;5053888;28;19934;-58
2024/02/07 06:41:36;;;;;;;;;;;22.60;37.30;;;;;;5061792;28;20317;-59
2024/02/07 06:44:03;;;;;;;;;;;22.70;37.40;;;;;;5045232;28;19931;-59
2024/02/07 06:46:30;;;;;;;;;;;22.70;37.60;;;;;;5057676;28;19928;-60
2024/02/07 06:48:58;;;;;;;;;;;22.70;37.80;;;;;;5045248;28;20274;-58
2024/02/07 06:51:25;;;;;;;;;;;22.70;37.90;;;;;;5061193;28;19932;-59
2024/02/07 06:53:52;;;;;;;;;;;22.70;38.00;;;;;;5064079;28;20374;-57
2024/02/07 06:56:19;;;;;;;;;;;22.80;38.00;;;;;;5060097;28;19928;-55
2024/02/07 06:58:46;;;;;;;;;;;22.80;37.90;;;;;;5060056;28;20325;-58
2024/02/07 07:01:14;;;;;;;;;;;22.80;37.60;;;;;;5060970;28;19939;-57
2024/02/07 07:03:42;;;;;;;;;;;22.90;37.40;;;;;;5060797;28;19932;-58
2024/02/07 07:06:09;;;;;;;;;;;22.90;37.60;;;;;;5058695;28;21361;-59
2024/02/07 07:08:36;;;;;;;;;;;22.90;37.90;;;;;;5064767;28;20533;-61
2024/02/07 07:11:04;;;;;;;;;;;23.00;38.00;;;;;;5060435;28;19928;-61
2024/02/07 07:13:31;;;;;;;;;;;23.10;38.10;;;;;;5064578;28;19929;-60
2024/02/07 07:15:58;;;;;;;;;;;23.10;38.10;;;;;;5062934;28;19940;-59
2024/02/07 07:18:26;;;;;;;;;;;23.20;38.20;;;;;;5061272;28;20043;-62
2024/02/07 07:20:53;;;;;;;;;;;23.30;38.50;;;;;;5061333;28;19926;-61
2024/02/07 07:23:20;;;;;;;;;;;23.30;38.30;;;;;;5061475;28;20270;-60
2024/02/07 07:25:47;;;;;;;;;;;23.30;38.50;;;;;;5044713;28;20406;-59
2024/02/07 07:28:14;;;;;;;;;;;23.40;38.50;;;;;;5063771;28;19935;-59
2024/02/07 07:30:42;;;;;;;;;;;23.40;38.40;;;;;;5069518;28;20381;-58
2024/02/07 07:33:09;;;;;;;;;;;23.50;38.20;;;;;;5063925;28;19935;-54
2024/02/07 07:35:36;;;;;;;;;;;23.60;38.50;;;;;;5066957;28;20016;-53
2024/02/07 07:38:04;;;;;;;;;;;23.60;37.70;;;;;;5066345;28;20338;-57
2024/02/07 07:40:31;;;;;;;;;;;23.60;37.60;;;;;;5067199;28;19924;-58
2024/02/07 07:42:59;;;;;;;;;;;23.70;37.40;;;;;;5061148;28;19928;-60
2024/02/07 07:45:26;;;;;;;;;;;23.70;37.20;;;;;;5059938;28;20027;-66
2024/02/07 07:47:54;;;;;;;;;;;23.70;37.20;;;;;;5046585;28;20004;-61
2024/02/07 07:50:21;;;;;;;;;;;23.80;37.40;;;;;;5063958;28;19928;-58
2024/02/07 07:52:48;;;;;;;;;;;23.80;37.40;;;;;;5062136;28;19928;-57
2024/02/07 07:55:15;;;;;;;;;;;23.90;37.40;;;;;;5059404;28;20017;-59
2024/02/07 07:57:42;;;;;;;;;;;23.90;37.20;;;;;;5060940;28;19932;-60
2024/02/07 08:00:10;;;;;;;;;;;23.90;37.00;;;;;;5061842;28;19986;-59
2024/02/07 08:02:37;;;;;;;;;;;23.90;36.90;;;;;;5060126;28;19970;-63
2024/02/07 08:05:04;;;;;;;;;;;23.90;36.80;;;;;;5066850;28;20043;-60
2024/02/07 08:07:33;;;;;;;;;;;23.90;36.80;;;;;;5066788;28;20305;-61
2024/02/07 08:10:00;;;;;;;;;;;24.00;36.80;;;;;;5067941;28;20332;-60
2024/02/07 08:12:27;;;;;;;;;;;24.00;36.80;;;;;;5072304;28;19924;-59
2024/02/07 08:14:54;;;;;;;;;;;24.00;36.70;;;;;;5062500;28;19932;-58
2024/02/07 08:17:21;;;;;;;;;;;23.90;36.70;;;;;;5062688;28;20007;-58
2024/02/07 08:19:48;;;;;;;;;;;24.00;36.70;;;;;;5055310;28;20027;-55
2024/02/07 08:22:16;;;;;;;;;;;24.00;36.60;;;;;;5060629;28;19938;-56
2024/02/07 08:24:43;;;;;;;;;;;24.00;36.50;;;;;;5053427;28;20019;-56
2024/02/07 08:27:10;;;;;;;;;;;24.10;36.50;;;;;;5045995;28;19933;-56
2024/02/07 08:29:36;;;;;;;;;;;24.10;36.40;;;;;;5053305;28;20360;-57
2024/02/07 08:32:04;;;;;;;;;;;24.10;36.30;;;;;;5058442;28;19940;-55
2024/02/07 08:34:31;;;;;;;;;;;24.10;36.30;;;;;;5060196;28;19968;-58
2024/02/07 08:36:58;;;;;;;;;;;24.10;36.30;;;;;;5066249;28;19929;-58
2024/02/07 08:39:25;;;;;;;;;;;24.10;36.40;;;;;;5050531;28;19935;-55
2024/02/07 08:41:54;;;;;;;;;;;24.10;36.50;;;;;;5065189;28;19972;-55
2024/02/07 08:44:21;;;;;;;;;;;24.20;36.50;;;;;;5062012;28;20362;-53
2024/02/07 08:46:48;;;;;;;;;;;24.20;36.50;;;;;;5067382;28;20293;-56
2024/02/07 08:49:18;;;;;;;;;;;24.20;36.50;;;;;;5062200;28;19931;-57
2024/02/07 08:51:46;;;;;;;;;;;24.20;37.20;;;;;;5065971;28;19935;-55
2024/02/07 08:54:13;;;;;;;;;;;24.30;36.70;;;;;;5064194;28;20019;-57
2024/02/07 08:56:39;;;;;;;;;;;24.20;36.70;;;;;;5049921;28;19970;-57
2024/02/07 08:59:06;;;;;;;;;;;24.30;36.80;;;;;;5065099;28;20011;-58
2024/02/07 09:01:33;;;;;;;;;;;24.30;36.90;;;;;;5064626;28;19978;-56
2024/02/07 09:04:00;;;;;;;;;;;24.30;36.80;;;;;;5050837;28;20031;-58
2024/02/07 09:06:27;;;;;;;;;;;24.30;36.80;;;;;;5063339;28;19924;-56
2024/02/07 09:08:55;;;;;;;;;;;24.30;36.70;;;;;;5046632;28;20329;-58
2024/02/07 09:11:22;;;;;;;;;;;24.30;36.60;;;;;;5066399;28;19959;-59
2024/02/07 09:13:48;;;;;;;;;;;24.40;36.70;;;;;;5063247;28;19954;-59
2024/02/07 09:16:15;;;;;;;;;;;24.40;36.60;;;;;;5064943;28;19936;-59
2024/02/07 09:18:43;;;;;;;;;;;24.40;36.50;;;;;;5064354;28;19926;-59
2024/02/07 09:21:09;;;;;;;;;;;24.50;36.50;;;;;;5067952;28;19924;-59
2024/02/07 09:23:36;;;;;;;;;;;24.40;36.40;;;;;;5071057;28;20000;-60
2024/02/07 09:26:04;;;;;;;;;;;24.50;36.40;;;;;;5061603;28;20300;-59
2024/02/07 09:28:33;;;;;;;;;;;24.50;36.30;;;;;;5043059;28;19933;-59
2024/02/07 09:31:00;;;;;;;;;;;24.50;36.30;;;;;;5063835;28;19951;-58
2024/02/07 09:33:28;;;;;;;;;;;24.60;36.40;;;;;;5060198;28;20340;-59
2024/02/07 09:35:58;;;;;;;;;;;24.60;36.30;;;;;;5029270;28;19931;-56
2024/02/07 09:38:26;;;;;;;;;;;24.60;36.30;;;;;;5065669;28;19974;-55
2024/02/07 09:40:55;;;;;;;;;;;24.70;36.80;;;;;;5062550;28;19939;-58
2024/02/07 09:43:26;;;;;;;;;;;24.70;36.10;;;;;;5057243;28;19932;-57
2024/02/07 09:45:57;;;;;;;;;;;24.80;36.10;;;;;;5058929;28;19926;-58
2024/02/07 09:48:25;;;;;;;;;;;24.80;36.10;;;;;;5062311;28;19925;-53
2024/02/07 09:50:59;;;;;;;;;;;24.80;35.90;;;;;;5038494;28;20491;-54
2024/02/07 09:53:27;;;;;;;;;;;24.80;35.80;;;;;;5065682;28;19940;-55
2024/02/07 09:55:54;;;;;;;;;;;24.90;35.80;;;;;;5067612;28;20333;-56
2024/02/07 09:58:21;;;;;;;;;;;24.90;35.70;;;;;;5075566;28;19933;-57
2024/02/07 10:00:50;;;;;;;;;;;24.90;35.60;;;;;;5063112;28;19934;-57
2024/02/07 10:03:20;;;;;;;;;;;24.90;35.50;;;;;;5065739;28;20040;-58
2024/02/07 10:05:51;;;;;;;;;;;24.90;35.40;;;;;;5048464;28;20017;-58
2024/02/07 10:08:18;;;;;;;;;;;24.90;35.30;;;;;;5066704;28;20018;-56
2024/02/07 10:10:49;;;;;;;;;;;24.90;35.30;;;;;;5064269;28;20550;-57
2024/02/07 10:13:17;;;;;;;;;;;24.90;35.30;;;;;;5027969;28;20011;-54
2024/02/07 10:15:45;;;;;;;;;;;25.00;35.40;;;;;;5063582;28;19925;-57
2024/02/07 10:18:12;;;;;;;;;;;25.00;35.40;;;;;;5053289;28;21028;-58
2024/02/07 10:20:39;;;;;;;;;;;25.00;35.30;;;;;;5057001;28;20030;-58
2024/02/07 10:23:09;;;;;;;;;;;25.00;35.30;;;;;;5055649;28;19971;-58
2024/02/07 10:25:36;;;;;;;;;;;25.00;35.40;;;;;;5059476;28;20556;-57
2024/02/07 10:28:04;;;;;;;;;;;25.10;35.60;;;;;;5041500;28;20055;-58
2024/02/07 10:30:31;;;;;;;;;;;25.10;35.70;;;;;;5062874;28;20266;-59
2024/02/07 10:32:59;;;;;;;;;;;25.10;35.50;;;;;;5061816;28;19932;-58
2024/02/07 10:35:26;;;;;;;;;;;25.10;35.50;;;;;;5042993;28;19929;-59
2024/02/07 10:37:55;;;;;;;;;;;25.10;35.50;;;;;;5062964;28;19925;-61
2024/02/07 10:40:23;;;;;;;;;;;25.20;35.50;;;;;;5062667;28;20019;-60
2024/02/07 10:42:55;;;;;;;;;;;25.20;35.50;;;;;;5064927;28;19925;-60
2024/02/07 10:45:22;;;;;;;;;;;25.20;35.40;;;;;;5061972;28;20427;-59
2024/02/07 10:47:52;;;;;;;;;;;25.30;35.40;;;;;;5061236;28;20033;-60
2024/02/07 10:50:21;;;;;;;;;;;25.30;35.30;;;;;;5062116;28;19943;-59
2024/02/07 10:52:49;;;;;;;;;;;25.30;35.20;;;;;;5062393;28;19924;-59
2024/02/07 10:55:21;;;;;;;;;;;25.30;35.10;;;;;;5055354;28;19964;-59
2024/02/07 10:57:50;;;;;;;;;;;25.30;35.00;;;;;;5043763;28;19924;-60
2024/02/07 11:00:18;;;;;;;;;;;25.30;34.90;;;;;;5065361;28;19935;-54
2024/02/07 11:02:47;;;;;;;;;;;25.30;35.00;;;;;;5045322;28;19948;-59
2024/02/07 11:05:15;;;;;;;;;;;25.30;35.00;;;;;;5059809;28;19944;-62
2024/02/07 11:07:42;;;;;;;;;;;25.30;34.90;;;;;;5057947;28;20401;-60
2024/02/07 11:10:10;;;;;;;;;;;25.30;34.90;;;;;;5059600;28;19994;-59
2024/02/07 11:12:43;;;;;;;;;;;25.30;35.00;;;;;;5062156;28;20305;-60
2024/02/07 11:15:10;;;;;;;;;;;25.30;35.10;;;;;;5065436;28;20023;-60
2024/02/07 11:17:39;;;;;;;;;;;25.30;35.00;;;;;;5067381;28;19932;-60
2024/02/07 11:20:07;;;;;;;;;;;25.30;34.90;;;;;;5066122;28;19928;-60
2024/02/07 11:22:42;;;;;;;;;;;25.30;34.90;;;;;;5072356;28;19950;-61
2024/02/07 11:25:13;;;;;;;;;;;25.30;34.80;;;;;;5067837;28;19925;-58
2024/02/07 11:27:40;;;;;;;;;;;25.30;34.70;;;;;;5065100;28;19991;-58
2024/02/07 11:30:08;;;;;;;;;;;25.30;34.60;;;;;;5065279;28;19932;-58
2024/02/07 11:32:38;;;;;;;;;;;25.30;34.60;;;;;;5065089;28;19929;-59
2024/02/07 11:35:09;;;;;;;;;;;25.30;34.60;;;;;;5071417;28;19936;-58
2024/02/07 11:37:37;;;;;;;;;;;25.30;34.80;;;;;;5061567;28;20441;-59
2024/02/07 11:40:05;;;;;;;;;;;25.30;35.00;;;;;;5065915;28;19925;-62
2024/02/07 11:42:37;;;;;;;;;;;25.30;35.10;;;;;;5066295;28;19947;-61
2024/02/07 11:45:04;;;;;;;;;;;25.30;35.10;;;;;;5071352;28;19924;-59
2024/02/07 11:47:35;;;;;;;;;;;25.40;35.30;;;;;;5047190;28;20008;-61
2024/02/07 11:50:05;;;;;;;;;;;25.40;35.40;;;;;;5066571;28;20015;-60
2024/02/07 11:52:33;;;;;;;;;;;25.40;35.60;;;;;;5060245;28;19925;-58
2024/02/07 11:55:06;;;;;;;;;;;25.40;35.60;;;;;;5065595;28;20332;-59
2024/02/07 11:57:33;;;;;;;;;;;25.40;35.50;;;;;;5044682;28;20409;-60
2024/02/07 12:00:01;;;;;;;;;;;25.40;35.40;;;;;;5062756;28;19985;-58
2024/02/07 12:02:28;;;;;;;;;;;25.40;35.30;;;;;;5065179;28;19935;-60
2024/02/07 12:04:55;;;;;;;;;;;25.40;35.00;;;;;;5066852;28;19930;-59
2024/02/07 12:07:22;;;;;;;;;;;25.40;34.50;;;;;;5065099;28;20451;-59
2024/02/07 12:09:50;;;;;;;;;;;25.40;33.80;;;;;;5066676;28;19932;-58
2024/02/07 12:12:17;;;;;;;;;;;25.40;33.40;;;;;;5063001;28;19928;-60
2024/02/07 12:14:46;;;;;;;;;;;25.40;33.70;;;;;;5064447;28;19928;-60
2024/02/07 12:17:13;;;;;;;;;;;25.40;33.80;;;;;;5064214;28;20006;-60
2024/02/07 12:19:47;;;;;;;;;;;25.40;34.10;;;;;;5066821;28;20401;-60
2024/02/07 12:22:16;;;;;;;;;;;25.40;34.20;;;;;;5065950;28;19947;-61
2024/02/07 12:24:43;;;;;;;;;;;25.40;34.30;;;;;;5064231;28;20045;-60
2024/02/07 12:27:15;;;;;;;;;;;25.40;34.30;;;;;;5063892;28;20014;-60
2024/02/07 12:29:50;;;;;;;;;;;25.40;34.30;;;;;;5056500;28;19925;-59
2024/02/07 12:32:17;;;;;;;;;;;25.40;34.30;;;;;;5063750;28;20393;-59
2024/02/07 12:34:47;;;;;;;;;;;25.40;34.30;;;;;;5058703;28;19931;-59
2024/02/07 12:37:16;;;;;;;;;;;25.40;34.20;;;;;;5057820;28;19972;-58
2024/02/07 12:39:46;;;;;;;;;;;25.40;33.80;;;;;;5056760;28;19966;-59
2024/02/07 12:42:13;;;;;;;;;;;25.40;33.20;;;;;;5058571;28;19990;-58
2024/02/07 12:44:40;;;;;;;;;;;25.40;33.20;;;;;;5063664;28;19979;-58
2024/02/07 12:47:08;;;;;;;;;;;25.40;33.50;;;;;;5063690;28;20013;-59
2024/02/07 12:49:35;;;;;;;;;;;25.40;32.70;;;;;;5065164;28;19925;-61
2024/02/07 12:52:03;;;;;;;;;;;25.30;33.20;;;;;;5061286;28;20383;-60
2024/02/07 12:54:31;;;;;;;;;;;25.30;33.50;;;;;;5063247;28;20397;-61
2024/02/07 12:56:58;;;;;;;;;;;25.30;33.70;;;;;;5063515;28;19932;-60
2024/02/07 12:59:32;;;;;;;;;;;25.30;33.80;;;;;;5060661;28;19929;-61
2024/02/07 13:02:04;;;;;;;;;;;25.40;33.90;;;;;;5062224;28;19924;-64
2024/02/07 13:04:31;;;;;;;;;;;25.40;33.80;;;;;;5061618;28;19925;-61
2024/02/07 13:06:59;;;;;;;;;;;25.40;33.80;;;;;;5063800;28;19932;-61
2024/02/07 13:09:26;;;;;;;;;;;25.40;33.80;;;;;;5054793;28;19939;-60
2024/02/07 13:11:54;;;;;;;;;;;25.40;33.90;;;;;;5060646;28;19940;-62
2024/02/07 13:14:21;;;;;;;;;;;25.40;33.90;;;;;;5060515;28;19924;-61
2024/02/07 13:16:51;;;;;;;;;;;25.40;33.90;;;;;;5047748;28;19939;-63
2024/02/07 13:19:18;;;;;;;;;;;25.40;33.90;;;;;;5063694;28;20275;-65
2024/02/07 13:21:46;;;;;;;;;;;25.40;33.90;;;;;;5059066;28;19932;-61
2024/02/07 13:24:17;;;;;;;;;;;25.40;33.90;;;;;;5061202;28;19924;-63
2024/02/07 13:26:45;;;;;;;;;;;25.40;33.80;;;;;;5060865;28;20015;-61
2024/02/07 13:29:13;;;;;;;;;;;25.40;33.80;;;;;;5062455;28;20015;-62
2024/02/07 13:31:43;;;;;;;;;;;25.40;33.80;;;;;;5061695;28;19939;-66
2024/02/07 13:34:11;;;;;;;;;;;25.40;33.80;;;;;;5063321;28;19924;-62
2024/02/07 13:36:38;;;;;;;;;;;25.50;34.00;;;;;;5044034;28;19989;-66
2024/02/07 13:39:06;;;;;;;;;;;25.40;33.90;;;;;;5059444;28;19976;-65
2024/02/07 13:41:33;;;;;;;;;;;25.40;33.90;;;;;;5062386;28;19928;-68
2024/02/07 13:44:00;;;;;;;;;;;25.40;33.80;;;;;;5061707;28;19958;-60
2024/02/07 13:46:28;;;;;;;;;;;25.40;33.90;;;;;;5064325;28;19932;-59
2024/02/07 13:49:02;;;;;;;;;;;25.50;34.00;;;;;;5055173;28;20025;-60
2024/02/07 13:51:29;;;;;;;;;;;25.50;33.90;;;;;;5061776;28;20328;-61
2024/02/07 13:53:56;;;;;;;;;;;25.50;33.80;;;;;;5059510;28;19930;-62
2024/02/07 13:56:23;;;;;;;;;;;25.50;33.80;;;;;;5061021;28;19928;-59
2024/02/07 13:58:50;;;;;;;;;;;25.50;33.80;;;;;;5057642;28;19932;-61
2024/02/07 14:01:17;;;;;;;;;;;25.50;33.80;;;;;;5058413;28;19939;-60
2024/02/07 14:03:44;;;;;;;;;;;25.50;33.60;;;;;;5055550;28;20386;-60
2024/02/07 14:06:11;;;;;;;;;;;25.50;33.50;;;;;;5039071;28;20023;-60
2024/02/07 14:08:38;;;;;;;;;;;25.60;33.60;;;;;;5054360;28;19931;-59
2024/02/07 14:11:05;;;;;;;;;;;25.50;33.40;;;;;;5057326;28;19935;-57
2024/02/07 14:13:32;;;;;;;;;;;25.50;33.40;;;;;;5054906;28;19954;-59
2024/02/07 14:15:59;;;;;;;;;;;25.50;33.60;;;;;;5055474;28;20377;-59
2024/02/07 14:18:26;;;;;;;;;;;25.50;33.80;;;;;;5053334;28;19928;-60
2024/02/07 14:20:53;;;;;;;;;;;25.50;34.00;;;;;;5057026;28;19975;-63
2024/02/07 14:23:20;;;;;;;;;;;25.60;34.20;;;;;;5055174;28;19945;-62
2024/02/07 14:25:48;;;;;;;;;;;25.60;34.00;;;;;;5053254;28;19978;-64
2024/02/07 14:28:15;;;;;;;;;;;25.60;33.90;;;;;;5050728;28;20486;-59
2024/02/07 14:30:42;;;;;;;;;;;25.60;33.80;;;;;;5056993;28;20492;-61
2024/02/07 14:33:11;;;;;;;;;;;25.60;34.00;;;;;;5057889;28;19940;-60
2024/02/07 14:35:38;;;;;;;;;;;25.70;34.20;;;;;;5063402;28;19932;-60
2024/02/07 14:38:05;;;;;;;;;;;25.70;34.20;;;;;;5059947;28;19928;-59
2024/02/07 14:40:32;;;;;;;;;;;25.70;34.00;;;;;;5054446;28;19932;-60
2024/02/07 14:42:59;;;;;;;;;;;25.70;33.80;;;;;;5054918;28;19932;-60
2024/02/07 14:45:26;;;;;;;;;;;25.70;33.70;;;;;;5063409;28;20316;-60
2024/02/07 14:47:53;;;;;;;;;;;25.70;33.80;;;;;;5046488;28;19932;-59
2024/02/07 14:50:20;;;;;;;;;;;25.70;33.90;;;;;;5057851;28;20432;-59
2024/02/07 14:52:47;;;;;;;;;;;25.70;34.00;;;;;;5056600;28;19931;-62
2024/02/07 14:55:14;;;;;;;;;;;25.70;34.10;;;;;;5059613;28;19932;-58
2024/02/07 14:57:41;;;;;;;;;;;25.60;34.40;;;;;;5060759;28;19933;-61
2024/02/07 15:00:09;;;;;;;;;;;25.60;34.50;;;;;;5061799;28;20365;-59
2024/02/07 15:02:36;;;;;;;;;;;25.60;34.50;;;;;;5065362;28;19939;-59
2024/02/07 15:05:03;;;;;;;;;;;25.60;34.60;;;;;;5062999;28;19960;-59
2024/02/07 15:07:30;;;;;;;;;;;25.60;34.60;;;;;;5067916;28;19932;-61
2024/02/07 15:09:57;;;;;;;;;;;25.60;34.70;;;;;;5059616;28;20377;-59
2024/02/07 15:12:24;;;;;;;;;;;25.60;34.90;;;;;;5050586;28;19931;-59
2024/02/07 15:14:51;;;;;;;;;;;25.60;35.00;;;;;;5060476;28;19929;-59
2024/02/07 15:17:18;;;;;;;;;;;25.60;34.80;;;;;;5068218;28;20263;-58
2024/02/07 15:19:45;;;;;;;;;;;25.60;34.70;;;;;;5065285;28;19932;-59
2024/02/07 15:22:12;;;;;;;;;;;25.60;34.90;;;;;;5067235;28;19967;-59
2024/02/07 15:24:39;;;;;;;;;;;25.60;35.00;;;;;;5064930;28;19932;-59